Time;durP1;ratioP1;P1;durP2;ratioP2;P2;SDS_P1;SDS_P2;PMS_P1;PMS_P2;Temp;Humidity;BMP_temperature;BMP_pressure;BME280_temperature;BME280_humidity;BME280_pressure;Samples;Min_cycle;Max_cycle;Signal;HPM_P1;HPM_P2
2022/10/26 00:02:23;;;;;;;23.38;14.98;;;10.40;99.90;;;;;;5137086;27;20081;-43
2022/10/26 00:04:49;;;;;;;20.23;14.35;;;10.40;99.90;;;;;;5140020;27;20038;-51
2022/10/26 00:07:14;;;;;;;20.35;13.18;;;10.30;99.90;;;;;;5140835;27;20047;-50
2022/10/26 00:09:40;;;;;;;19.05;12.82;;;10.30;99.90;;;;;;5139785;27;20107;-46
2022/10/26 00:12:06;;;;;;;21.83;14.20;;;10.30;99.90;;;;;;5140081;27;20096;-50
2022/10/26 00:14:31;;;;;;;17.20;12.57;;;10.20;99.90;;;;;;5140503;27;20039;-50
2022/10/26 00:16:57;;;;;;;17.65;12.75;;;10.20;99.90;;;;;;5126696;27;20050;-53
2022/10/26 00:19:23;;;;;;;16.50;12.82;;;10.10;99.90;;;;;;5121894;27;20121;-53
2022/10/26 00:21:49;;;;;;;20.08;13.20;;;10.20;99.90;;;;;;5140150;27;20039;-50
2022/10/26 00:24:15;;;;;;;19.38;12.23;;;10.10;99.90;;;;;;5140666;27;20054;-51
2022/10/26 00:26:40;;;;;;;18.58;13.35;;;10.00;99.90;;;;;;5140584;27;20145;-45
2022/10/26 00:29:06;;;;;;;15.95;13.07;;;10.00;99.90;;;;;;5140832;27;20042;-44
2022/10/26 00:31:32;;;;;;;17.42;12.57;;;10.00;99.90;;;;;;5139469;27;20157;-49
2022/10/26 00:33:58;;;;;;;19.13;13.25;;;10.00;99.90;;;;;;5140601;27;20543;-47
2022/10/26 00:36:25;;;;;;;18.38;12.65;;;10.00;99.90;;;;;;5121714;27;20047;-44
2022/10/26 00:38:53;;;;;;;21.80;13.65;;;10.00;99.90;;;;;;5140136;27;20357;-43
2022/10/26 00:41:22;;;;;;;22.80;13.20;;;9.80;99.90;;;;;;5138699;27;20035;-49
2022/10/26 00:43:48;;;;;;;18.50;12.82;;;9.80;99.90;;;;;;5140342;27;20404;-45
2022/10/26 00:46:25;;;;;;;15.27;12.48;;;9.80;99.90;;;;;;5134072;27;20479;-52
2022/10/26 00:49:15;;;;;;;15.10;12.43;;;9.70;99.90;;;;;;5140601;27;20049;-49
2022/10/26 00:51:47;;;;;;;17.23;12.35;;;9.60;99.90;;;;;;5126750;27;20034;-45
2022/10/26 00:54:19;;;;;;;16.63;13.23;;;9.60;99.90;;;;;;5140421;27;20049;-51
2022/10/26 00:56:47;;;;;;;18.50;13.63;;;9.60;99.90;;;;;;5121458;27;20499;-50
2022/10/26 00:59:15;;;;;;;19.77;13.23;;;9.60;99.90;;;;;;5140708;27;20445;-46
2022/10/26 01:01:43;;;;;;;16.45;13.00;;;9.50;99.90;;;;;;5139660;27;20503;-49
2022/10/26 01:04:11;;;;;;;19.58;13.65;;;9.40;99.90;;;;;;5140276;27;20047;-43
2022/10/26 01:06:37;;;;;;;15.50;13.82;;;9.40;99.90;;;;;;5140765;27;20050;-56
2022/10/26 01:09:04;;;;;;;19.02;13.18;;;9.40;99.90;;;;;;5121598;27;20248;-48
2022/10/26 01:11:29;;;;;;;18.30;13.88;;;9.40;99.90;;;;;;5139648;27;20190;-46
2022/10/26 01:13:56;;;;;;;15.68;13.05;;;9.40;99.90;;;;;;5139835;27;20485;-48
2022/10/26 01:16:38;;;;;;;16.08;13.18;;;9.40;99.90;;;;;;5110491;27;20239;-55
2022/10/26 01:19:12;;;;;;;19.75;13.25;;;9.30;99.90;;;;;;5137871;27;20054;-51
2022/10/26 01:21:47;;;;;;;16.30;13.15;;;9.30;99.90;;;;;;5138386;27;20542;-46
2022/10/26 01:24:39;;;;;;;15.73;13.45;;;9.30;99.90;;;;;;5140021;27;20043;-51
2022/10/26 01:27:30;;;;;;;17.52;13.50;;;9.30;99.90;;;;;;5139042;27;20046;-45
2022/10/26 01:30:15;;;;;;;17.38;13.88;;;9.20;99.90;;;;;;5137712;27;20049;-46
2022/10/26 01:33:17;;;;;;;19.58;13.85;;;9.20;99.90;;;;;;5139047;27;20452;-43
2022/10/26 01:35:55;;;;;;;17.95;12.68;;;9.20;99.90;;;;;;5126890;27;20535;-51
2022/10/26 01:38:34;;;;;;;19.70;13.68;;;9.20;99.90;;;;;;5138654;27;20046;-49
2022/10/26 01:41:18;;;;;;;17.45;13.88;;;9.20;99.90;;;;;;5119072;27;20054;-46
2022/10/26 01:43:54;;;;;;;19.77;14.30;;;9.20;99.90;;;;;;5126321;27;20388;-54
2022/10/26 01:46:23;;;;;;;18.77;13.77;;;9.10;99.90;;;;;;5112964;27;20120;-49
2022/10/26 01:48:52;;;;;;;24.65;14.45;;;9.10;99.90;;;;;;5138465;27;20481;-48
2022/10/26 01:51:20;;;;;;;18.85;13.75;;;9.10;99.90;;;;;;5119125;27;20480;-51
2022/10/26 01:53:46;;;;;;;17.83;12.23;;;9.10;99.90;;;;;;5114012;27;20443;-44
2022/10/26 01:56:18;;;;;;;22.40;14.30;;;9.10;99.90;;;;;;5135492;27;20509;-48
2022/10/26 01:59:05;;;;;;;17.67;14.05;;;9.10;99.90;;;;;;5139680;27;20061;-54
2022/10/26 02:02:19;;;;;;;19.92;13.73;;;9.10;99.90;;;;;;5122480;27;20491;-43
2022/10/26 02:05:12;;;;;;;20.48;13.32;;;9.00;99.90;;;;;;5052593;28;20059;-52
2022/10/26 02:08:13;;;;;;;18.23;14.27;;;9.00;99.90;;;;;;5052177;28;20163;-54
2022/10/26 02:10:58;;;;;;;18.48;13.55;;;9.00;99.90;;;;;;5052033;28;20052;-45
2022/10/26 02:13:49;;;;;;;25.08;14.30;;;9.00;99.90;;;;;;5053463;28;20080;-49
2022/10/26 02:16:27;;;;;;;16.17;13.88;;;9.00;99.90;;;;;;5053188;28;20106;-46
2022/10/26 02:19:14;;;;;;;21.65;14.27;;;9.00;99.90;;;;;;5052715;28;20509;-55
2022/10/26 02:21:48;;;;;;;20.58;14.48;;;9.00;99.90;;;;;;5053155;28;20059;-51
2022/10/26 02:24:16;;;;;;;20.40;14.60;;;9.00;99.90;;;;;;5054060;28;20119;-52
2022/10/26 02:26:45;;;;;;;22.15;14.68;;;9.00;99.90;;;;;;5053353;28;20191;-44
2022/10/26 02:29:15;;;;;;;22.15;15.35;;;9.10;99.90;;;;;;5037218;28;20054;-52
2022/10/26 02:31:42;;;;;;;21.63;15.20;;;9.00;99.90;;;;;;5053071;28;20399;-48
2022/10/26 02:34:11;;;;;;;21.38;15.68;;;9.00;99.90;;;;;;5053760;28;20089;-47
2022/10/26 02:36:43;;;;;;;23.02;16.33;;;9.10;99.90;;;;;;5037698;28;20091;-57
2022/10/26 02:39:10;;;;;;;18.88;15.98;;;9.10;99.90;;;;;;5053507;28;20130;-56
2022/10/26 02:41:38;;;;;;;22.95;16.20;;;9.10;99.90;;;;;;5081800;27;20455;-44
2022/10/26 02:44:30;;;;;;;21.45;16.98;;;9.10;99.90;;;;;;5138010;27;20034;-50
2022/10/26 02:46:56;;;;;;;21.42;17.45;;;9.20;99.90;;;;;;5125481;27;20441;-51
2022/10/26 02:49:23;;;;;;;22.05;16.58;;;9.10;99.90;;;;;;5136686;27;20376;-44
2022/10/26 02:52:13;;;;;;;19.42;15.88;;;9.10;99.90;;;;;;5119273;27;20043;-44
2022/10/26 02:54:59;;;;;;;20.05;17.02;;;9.20;99.90;;;;;;5118501;27;20135;-52
2022/10/26 02:57:33;;;;;;;20.42;16.63;;;9.10;99.90;;;;;;5136921;27;20122;-51
2022/10/26 02:59:59;;;;;;;22.17;16.88;;;9.10;99.90;;;;;;5135990;27;20042;-47
2022/10/26 03:02:26;;;;;;;23.15;17.23;;;9.10;99.90;;;;;;5137094;27;20038;-48
2022/10/26 03:04:53;;;;;;;23.63;18.42;;;9.10;99.90;;;;;;5137513;27;20491;-43
2022/10/26 03:07:25;;;;;;;24.15;18.58;;;9.10;99.90;;;;;;5136678;27;20051;-50
2022/10/26 03:09:51;;;;;;;24.77;19.73;;;9.20;99.90;;;;;;5117497;27;20054;-49
2022/10/26 03:12:17;;;;;;;29.63;21.23;;;9.20;99.90;;;;;;5118567;27;20034;-45
2022/10/26 03:14:43;;;;;;;26.00;20.23;;;9.30;99.90;;;;;;5137873;27;20039;-48
2022/10/26 03:17:08;;;;;;;28.98;20.98;;;9.30;99.90;;;;;;5122872;27;20039;-50
2022/10/26 03:19:34;;;;;;;28.77;22.63;;;9.30;99.90;;;;;;5135960;27;20049;-44
2022/10/26 03:21:59;;;;;;;25.33;20.98;;;9.30;99.90;;;;;;5136897;27;20075;-52
2022/10/26 03:24:25;;;;;;;26.60;21.10;;;9.30;99.90;;;;;;5137415;27;20175;-50
2022/10/26 03:26:51;;;;;;;32.08;21.83;;;9.40;99.90;;;;;;5117838;27;20059;-49
2022/10/26 03:29:16;;;;;;;25.20;20.90;;;9.30;99.90;;;;;;5117208;27;20475;-46
2022/10/26 03:31:42;;;;;;;28.45;21.95;;;9.30;99.90;;;;;;5136981;27;20042;-43
2022/10/26 03:34:07;;;;;;;29.90;22.52;;;9.30;99.90;;;;;;5136645;27;20074;-53
2022/10/26 03:36:33;;;;;;;28.88;22.27;;;9.30;99.90;;;;;;5136750;27;21073;-44
2022/10/26 03:38:59;;;;;;;23.27;20.75;;;9.30;99.90;;;;;;5138655;27;20531;-55
2022/10/26 03:41:24;;;;;;;40.13;25.05;;;9.30;99.90;;;;;;5139122;27;20370;-49
2022/10/26 03:43:50;;;;;;;27.30;22.83;;;9.30;99.90;;;;;;5140852;27;20513;-49
2022/10/26 03:46:15;;;;;;;25.88;22.45;;;9.20;99.90;;;;;;5134818;27;20049;-53
2022/10/26 03:48:41;;;;;;;28.55;21.85;;;9.30;99.90;;;;;;5141112;27;20038;-47
2022/10/26 03:51:07;;;;;;;28.15;23.95;;;9.30;99.90;;;;;;5139002;27;20197;-55
2022/10/26 03:53:33;;;;;;;28.25;23.33;;;9.30;99.90;;;;;;5122438;27;20082;-52
2022/10/26 03:55:58;;;;;;;31.58;23.00;;;9.40;99.90;;;;;;5139778;27;20035;-47
2022/10/26 03:58:24;;;;;;;27.98;22.67;;;9.40;99.90;;;;;;5140543;27;20034;-48
2022/10/26 04:00:50;;;;;;;31.45;23.60;;;9.40;99.90;;;;;;5138407;27;20055;-51
2022/10/26 04:03:15;;;;;;;27.75;24.05;;;9.40;99.90;;;;;;5141261;27;20047;-47
2022/10/26 04:05:41;;;;;;;28.13;23.42;;;9.40;99.90;;;;;;5120417;27;20047;-50
2022/10/26 04:08:07;;;;;;;27.25;23.42;;;9.40;99.90;;;;;;5139904;27;20053;-50
2022/10/26 04:10:33;;;;;;;40.60;26.33;;;9.50;99.90;;;;;;5139532;27;20515;-47
2022/10/26 04:13:00;;;;;;;30.35;24.15;;;9.50;99.90;;;;;;5140759;27;20468;-45
2022/10/26 04:15:26;;;;;;;26.48;23.30;;;9.60;99.90;;;;;;5138702;27;20448;-49
2022/10/26 04:18:00;;;;;;;30.25;22.83;;;9.60;99.90;;;;;;5128484;27;20043;-49
2022/10/26 04:20:27;;;;;;;29.10;23.55;;;9.60;99.90;;;;;;5139198;27;20115;-49
2022/10/26 04:23:05;;;;;;;36.53;24.73;;;9.60;99.90;;;;;;5140642;27;20046;-47
2022/10/26 04:25:32;;;;;;;29.95;24.23;;;9.60;99.90;;;;;;5121265;27;20091;-52
2022/10/26 04:27:58;;;;;;;30.35;22.50;;;9.60;99.90;;;;;;5140350;27;20480;-51
2022/10/26 04:30:24;;;;;;;32.97;23.73;;;9.70;99.90;;;;;;5138725;27;20049;-56
2022/10/26 04:32:50;;;;;;;26.63;21.70;;;9.80;99.90;;;;;;5121894;27;20322;-46
2022/10/26 04:35:15;;;;;;;29.27;21.13;;;9.70;99.90;;;;;;5140085;27;20103;-50
2022/10/26 04:37:41;;;;;;;30.02;22.45;;;9.80;99.90;;;;;;5140089;27;20126;-45
2022/10/26 04:40:07;;;;;;;24.13;21.40;;;9.90;99.90;;;;;;5138993;27;20067;-43
2022/10/26 04:42:46;;;;;;;31.60;21.38;;;9.80;99.90;;;;;;5140344;27;20038;-50
2022/10/26 04:45:14;;;;;;;31.92;21.77;;;9.80;99.90;;;;;;5131575;27;20054;-43
2022/10/26 04:47:40;;;;;;;24.83;20.35;;;9.90;99.90;;;;;;5133417;27;20050;-49
2022/10/26 04:50:07;;;;;;;26.20;21.42;;;9.90;99.90;;;;;;5138116;27;20055;-49
2022/10/26 04:52:34;;;;;;;27.35;21.83;;;10.00;99.90;;;;;;5121066;27;20390;-48
2022/10/26 04:55:00;;;;;;;29.50;21.42;;;10.00;99.90;;;;;;5139195;27;20087;-49
2022/10/26 04:57:26;;;;;;;27.13;21.15;;;10.00;99.90;;;;;;5139048;27;20043;-53
2022/10/26 04:59:52;;;;;;;28.33;21.13;;;10.00;99.90;;;;;;5138432;27;20387;-45
2022/10/26 05:02:19;;;;;;;28.73;21.90;;;10.10;99.90;;;;;;5103945;27;20421;-55
2022/10/26 05:04:45;;;;;;;29.38;21.52;;;10.10;99.90;;;;;;5140242;27;20046;-44
2022/10/26 05:07:11;;;;;;;33.60;23.98;;;10.10;99.90;;;;;;5139476;27;20095;-44
2022/10/26 05:09:37;;;;;;;32.75;22.30;;;10.00;99.90;;;;;;5119553;27;20500;-46
2022/10/26 05:12:02;;;;;;;28.15;25.23;;;10.10;99.90;;;;;;5120874;27;20439;-51
2022/10/26 05:14:28;;;;;;;27.15;24.30;;;10.10;99.90;;;;;;5120126;27;20395;-54
2022/10/26 05:16:54;;;;;;;24.40;20.70;;;10.20;99.90;;;;;;5125440;27;20179;-51
2022/10/26 05:19:20;;;;;;;26.80;21.15;;;10.20;99.90;;;;;;5137814;27;20153;-45
2022/10/26 05:21:46;;;;;;;26.52;20.52;;;10.20;99.90;;;;;;5138596;27;20125;-53
2022/10/26 05:24:11;;;;;;;27.50;20.17;;;10.30;99.90;;;;;;5139596;27;20047;-49
2022/10/26 05:26:37;;;;;;;30.15;21.02;;;10.20;99.90;;;;;;5138464;27;20047;-55
2022/10/26 05:29:03;;;;;;;23.00;19.98;;;10.20;99.90;;;;;;5138156;27;20476;-53
2022/10/26 05:31:28;;;;;;;25.95;21.35;;;10.30;99.90;;;;;;5138839;27;20045;-52
2022/10/26 05:33:54;;;;;;;24.38;20.63;;;10.30;99.90;;;;;;5120091;27;20074;-47
2022/10/26 05:36:20;;;;;;;25.88;17.67;;;10.40;99.90;;;;;;5138065;27;20039;-50
2022/10/26 05:38:46;;;;;;;24.88;22.23;;;10.40;99.90;;;;;;5138619;27;20422;-43
2022/10/26 05:41:12;;;;;;;27.33;21.17;;;10.30;99.90;;;;;;5118076;27;20237;-46
2022/10/26 05:43:38;;;;;;;29.75;21.20;;;10.30;99.90;;;;;;5138405;27;20409;-54
2022/10/26 05:46:03;;;;;;;25.27;18.60;;;10.40;99.90;;;;;;5133434;27;20039;-43
2022/10/26 05:48:29;;;;;;;24.88;19.50;;;10.40;99.90;;;;;;5137766;27;20166;-52
2022/10/26 05:50:59;;;;;;;21.73;18.55;;;10.40;99.90;;;;;;5118778;27;20038;-51
2022/10/26 05:53:24;;;;;;;23.83;19.38;;;10.40;99.90;;;;;;5138550;27;20038;-49
2022/10/26 05:55:50;;;;;;;24.90;17.52;;;10.40;99.90;;;;;;5138093;27;20046;-49
2022/10/26 05:58:17;;;;;;;22.85;18.27;;;10.40;99.90;;;;;;5138403;27;20074;-50
2022/10/26 06:01:10;;;;;;;24.00;18.27;;;10.40;99.90;;;;;;5136717;27;20860;-52
2022/10/26 06:03:36;;;;;;;22.00;18.27;;;10.50;99.90;;;;;;5119907;27;20069;-52
2022/10/26 06:06:02;;;;;;;20.17;16.63;;;10.50;99.90;;;;;;5102690;27;20559;-51
2022/10/26 06:08:28;;;;;;;22.80;17.50;;;10.50;99.90;;;;;;5118785;27;20043;-47
2022/10/26 06:10:58;;;;;;;24.88;17.92;;;10.50;99.90;;;;;;5137090;27;20110;-43
2022/10/26 06:13:24;;;;;;;26.08;16.63;;;10.50;99.90;;;;;;5138070;27;20039;-44
2022/10/26 06:16:08;;;;;;;20.67;16.83;;;10.50;99.90;;;;;;5132710;27;20090;-51
2022/10/26 06:18:52;;;;;;;20.52;16.52;;;10.50;99.90;;;;;;5132370;27;20042;-43
2022/10/26 06:21:46;;;;;;;22.13;17.05;;;10.50;99.90;;;;;;5119454;27;20050;-52
2022/10/26 06:24:37;;;;;;;21.77;16.52;;;10.40;99.90;;;;;;5138172;27;20527;-46
2022/10/26 06:27:32;;;;;;;26.65;17.98;;;10.40;99.90;;;;;;5138364;27;20594;-52
2022/10/26 06:30:02;;;;;;;20.67;16.30;;;10.40;99.90;;;;;;5136415;27;20043;-48
2022/10/26 06:32:28;;;;;;;22.98;16.30;;;10.40;99.90;;;;;;5119863;27;20084;-51
2022/10/26 06:35:27;;;;;;;23.33;17.27;;;10.40;99.90;;;;;;5138139;27;20039;-46
2022/10/26 06:37:55;;;;;;;20.50;16.95;;;10.30;99.90;;;;;;5137636;27;20042;-46
2022/10/26 06:40:22;;;;;;;21.05;16.17;;;10.30;99.90;;;;;;5133789;27;20046;-45
2022/10/26 06:42:49;;;;;;;21.02;17.02;;;10.30;99.90;;;;;;5137331;27;20047;-50
2022/10/26 06:45:16;;;;;;;28.65;16.58;;;10.30;99.90;;;;;;5137302;27;20448;-45
2022/10/26 06:47:59;;;;;;;25.77;17.63;;;10.40;99.90;;;;;;5134238;27;20177;-44
2022/10/26 06:50:28;;;;;;;18.98;16.98;;;10.30;99.90;;;;;;5117583;27;20050;-51
2022/10/26 06:53:05;;;;;;;20.77;16.02;;;10.40;99.90;;;;;;5118017;27;20060;-46
2022/10/26 06:55:40;;;;;;;22.20;16.75;;;10.50;99.90;;;;;;5137118;27;20196;-43
2022/10/26 06:58:12;;;;;;;21.05;16.25;;;10.60;99.90;;;;;;5136766;27;20047;-49
2022/10/26 07:00:38;;;;;;;21.02;16.83;;;10.70;99.90;;;;;;5135969;27;20172;-55
2022/10/26 07:03:04;;;;;;;23.75;17.38;;;10.70;99.90;;;;;;5137267;27;20038;-49
2022/10/26 07:05:29;;;;;;;19.88;15.70;;;10.70;99.90;;;;;;5136819;27;20057;-48
2022/10/26 07:07:55;;;;;;;21.08;16.17;;;10.80;99.90;;;;;;5136370;27;20043;-45
2022/10/26 07:10:21;;;;;;;19.85;15.98;;;10.90;99.90;;;;;;5116912;27;20352;-48
2022/10/26 07:12:46;;;;;;;17.75;15.00;;;10.90;99.90;;;;;;5136757;27;20494;-53
2022/10/26 07:15:12;;;;;;;17.35;14.85;;;11.00;99.90;;;;;;5136353;27;20605;-43
2022/10/26 07:17:45;;;;;;;22.45;14.70;;;10.90;99.90;;;;;;5129007;27;20061;-51
2022/10/26 07:20:16;;;;;;;22.60;14.43;;;11.00;99.90;;;;;;5116071;27;20045;-53
2022/10/26 07:22:41;;;;;;;22.08;15.18;;;11.10;99.90;;;;;;5122300;27;20039;-47
2022/10/26 07:25:08;;;;;;;19.48;14.98;;;11.10;99.90;;;;;;5124219;27;20299;-53
2022/10/26 07:27:34;;;;;;;18.33;14.68;;;11.20;99.90;;;;;;5123369;27;20551;-50
2022/10/26 07:30:00;;;;;;;16.45;13.45;;;11.20;99.90;;;;;;5119186;27;20047;-47
2022/10/26 07:32:26;;;;;;;17.35;13.25;;;11.20;99.90;;;;;;5106895;27;20046;-47
2022/10/26 07:34:51;;;;;;;18.42;13.73;;;11.20;99.90;;;;;;5118368;27;20631;-53
2022/10/26 07:37:17;;;;;;;18.35;14.30;;;11.30;99.90;;;;;;5136145;27;20042;-50
2022/10/26 07:39:43;;;;;;;16.30;13.75;;;11.40;99.90;;;;;;5135276;27;20154;-50
2022/10/26 07:42:08;;;;;;;16.17;13.25;;;11.40;99.90;;;;;;5136622;27;20042;-50
2022/10/26 07:44:34;;;;;;;19.25;13.18;;;11.40;99.90;;;;;;5117682;27;20051;-47
2022/10/26 07:46:59;;;;;;;20.73;14.15;;;11.40;99.90;;;;;;5130668;27;20042;-48
2022/10/26 07:49:25;;;;;;;16.70;12.85;;;11.50;99.90;;;;;;5135651;27;20359;-49
2022/10/26 07:51:51;;;;;;;12.65;11.23;;;11.50;99.90;;;;;;5137192;27;20039;-44
2022/10/26 07:54:17;;;;;;;18.50;12.55;;;11.60;99.90;;;;;;5136168;27;20051;-46
2022/10/26 07:56:42;;;;;;;16.48;12.30;;;11.70;99.90;;;;;;5136666;27;20050;-52
2022/10/26 07:59:11;;;;;;;14.65;12.13;;;11.80;99.90;;;;;;5134509;27;20047;-53
2022/10/26 08:01:37;;;;;;;18.13;12.18;;;11.90;99.90;;;;;;5102622;27;20040;-53
2022/10/26 08:04:02;;;;;;;14.75;11.35;;;11.90;99.90;;;;;;5120025;27;20229;-52
2022/10/26 08:06:28;;;;;;;13.18;11.05;;;12.00;99.90;;;;;;5137850;27;20138;-53
2022/10/26 08:08:54;;;;;;;15.45;11.07;;;12.10;99.90;;;;;;5136611;27;20150;-47
2022/10/26 08:11:20;;;;;;;12.45;10.45;;;12.20;99.90;;;;;;5139471;27;20066;-55
2022/10/26 08:13:45;;;;;;;14.45;11.10;;;12.30;99.90;;;;;;5132330;27;20039;-49
2022/10/26 08:16:12;;;;;;;15.10;11.52;;;12.30;99.90;;;;;;5129155;27;20084;-49
2022/10/26 08:18:38;;;;;;;14.27;10.38;;;12.30;99.90;;;;;;5115687;27;20382;-55
2022/10/26 08:21:06;;;;;;;17.70;11.68;;;12.30;99.90;;;;;;5136515;27;20941;-50
2022/10/26 08:23:32;;;;;;;13.20;10.18;;;12.30;99.90;;;;;;5135421;27;20030;-46
2022/10/26 08:26:02;;;;;;;13.45;9.82;;;12.40;99.90;;;;;;5138618;27;20501;-52
2022/10/26 08:28:28;;;;;;;13.85;9.70;;;12.50;99.90;;;;;;5137904;27;20802;-46
2022/10/26 08:30:54;;;;;;;13.77;9.73;;;12.50;99.90;;;;;;5119982;27;20044;-53
2022/10/26 08:33:20;;;;;;;14.63;10.15;;;12.50;99.90;;;;;;5139805;27;20042;-50
2022/10/26 08:35:46;;;;;;;13.35;9.30;;;12.60;99.90;;;;;;5140094;27;20053;-46
2022/10/26 08:38:12;;;;;;;14.68;8.40;;;12.60;99.90;;;;;;5139837;27;20058;-47
2022/10/26 08:40:40;;;;;;;11.02;9.50;;;12.70;99.90;;;;;;5119848;27;20503;-57
2022/10/26 08:43:30;;;;;;;12.55;9.27;;;12.70;99.90;;;;;;5139494;27;20031;-48
2022/10/26 08:46:14;;;;;;;18.27;8.20;;;12.80;99.90;;;;;;5108308;27;20382;-47
2022/10/26 08:49:01;;;;;;;13.85;9.27;;;12.80;99.90;;;;;;5137663;27;20119;-54
2022/10/26 08:51:36;;;;;;;18.17;10.75;;;12.90;99.90;;;;;;5137411;27;20940;-52
2022/10/26 08:54:19;;;;;;;11.50;8.15;;;12.80;99.90;;;;;;5138248;27;20069;-45
2022/10/26 08:56:49;;;;;;;12.65;8.30;;;12.90;99.90;;;;;;5137233;27;20047;-53
2022/10/26 08:59:26;;;;;;;13.10;7.82;;;12.90;99.90;;;;;;5138010;27;20035;-52
2022/10/26 09:01:53;;;;;;;11.43;7.45;;;12.90;99.90;;;;;;5139222;27;20043;-50
2022/10/26 09:04:24;;;;;;;11.60;7.35;;;12.90;99.90;;;;;;5136020;27;20173;-53
2022/10/26 09:07:12;;;;;;;13.70;7.43;;;13.10;99.90;;;;;;5129552;27;20106;-51
2022/10/26 09:09:55;;;;;;;9.40;6.90;;;13.10;99.90;;;;;;5127516;27;20038;-55
2022/10/26 09:12:27;;;;;;;;;;;13.20;99.90;;;;;;5103533;27;20054;-56
2022/10/26 09:15:15;;;;;;;10.52;6.90;;;13.40;99.90;;;;;;5138925;27;19919;-50
2022/10/26 09:18:16;;;;;;;9.50;6.20;;;13.60;99.90;;;;;;5139191;27;20050;-54
2022/10/26 09:21:30;;;;;;;10.88;6.40;;;13.80;99.90;;;;;;5034023;28;20470;-47
2022/10/26 09:24:13;;;;;;;9.57;6.78;;;14.00;99.90;;;;;;4974884;28;20055;-49
2022/10/26 09:26:52;;;;;;;11.45;6.45;;;14.00;99.90;;;;;;4971143;28;20132;-48
2022/10/26 09:29:20;;;;;;;10.77;6.47;;;14.00;99.90;;;;;;4963050;28;20406;-51
2022/10/26 09:31:49;;;;;;;10.82;6.93;;;14.10;99.90;;;;;;4974808;28;20096;-44
2022/10/26 09:34:41;;;;;;;12.20;7.20;;;14.10;99.90;;;;;;4974745;28;20124;-57
2022/10/26 09:37:24;;;;;;;16.08;7.20;;;14.20;99.90;;;;;;4973303;28;20058;-57
2022/10/26 09:40:26;;;;;;;10.35;7.10;;;14.20;99.90;;;;;;4973668;28;20549;-53
2022/10/26 09:43:09;;;;;;;9.68;6.65;;;14.30;99.90;;;;;;4916339;29;20059;-54
2022/10/26 09:45:41;;;;;;;10.75;6.18;;;14.50;99.90;;;;;;4916745;29;20071;-53
2022/10/26 09:48:18;;;;;;;12.85;7.03;;;14.60;99.90;;;;;;4917035;29;20102;-46
2022/10/26 09:50:48;;;;;;;8.60;6.57;;;14.70;99.90;;;;;;4916378;29;20055;-52
2022/10/26 09:53:14;;;;;;;10.75;5.95;;;14.70;99.90;;;;;;4916852;29;20056;-53
2022/10/26 09:55:45;;;;;;;11.20;6.93;;;14.70;99.90;;;;;;4917178;29;20051;-54
2022/10/26 09:58:19;;;;;;;11.07;5.95;;;14.80;99.90;;;;;;4945405;28;20061;-50
2022/10/26 10:00:45;;;;;;;8.80;5.55;;;14.90;99.90;;;;;;4976934;28;20127;-51
2022/10/26 10:03:25;;;;;;;7.43;5.88;;;15.00;99.90;;;;;;5033952;28;20049;-50
2022/10/26 10:05:52;;;;;;;10.60;5.38;;;15.10;99.90;;;;;;5020106;28;20053;-54
2022/10/26 10:08:21;;;;;;;8.00;4.78;;;15.30;99.90;;;;;;5033949;28;20060;-53
2022/10/26 10:11:15;;;;;;;16.33;6.15;;;15.40;99.90;;;;;;5016328;28;20071;-44
2022/10/26 10:13:42;;;;;;;;;;;15.50;99.90;;;;;;5034221;28;20136;-46
2022/10/26 10:16:20;;;;;;;10.05;4.47;;;15.60;99.90;;;;;;5032592;28;19921;-56
2022/10/26 10:18:56;;;;;;;7.75;4.43;;;15.60;99.90;;;;;;5065183;27;20554;-47
2022/10/26 10:21:37;;;;;;;8.55;4.05;;;15.70;99.90;;;;;;5137874;27;20046;-56
2022/10/26 10:24:30;;;;;;;6.88;4.00;;;15.80;99.90;;;;;;5136288;27;20034;-53
2022/10/26 10:27:00;;;;;;;8.15;3.90;;;15.80;99.90;;;;;;5137399;27;20134;-48
2022/10/26 10:29:46;;;;;;;6.97;3.92;;;15.90;99.90;;;;;;5118434;27;20046;-51
2022/10/26 10:32:19;;;;;;;8.35;4.20;;;15.90;99.90;;;;;;5137878;27;20079;-47
2022/10/26 10:34:46;;;;;;;10.60;4.68;;;16.00;99.90;;;;;;5137259;27;20407;-52
2022/10/26 10:37:22;;;;;;;13.05;4.30;;;16.00;99.90;;;;;;5137993;27;20321;-48
2022/10/26 10:39:48;;;;;;;10.25;4.88;;;16.10;99.90;;;;;;5137396;27;20046;-52
2022/10/26 10:42:22;;;;;;;12.00;4.45;;;16.00;99.90;;;;;;5138156;27;20038;-54
2022/10/26 10:44:53;;;;;;;4.97;4.47;;;16.10;99.90;;;;;;5118477;27;20061;-51
2022/10/26 10:47:23;;;;;;;7.88;4.90;;;16.10;99.90;;;;;;5128567;27;20053;-45
2022/10/26 10:50:02;;;;;;;7.32;4.30;;;16.10;99.90;;;;;;5117489;27;20039;-44
2022/10/26 10:52:33;;;;;;;7.72;4.20;;;16.20;99.90;;;;;;5124433;27;20043;-49
2022/10/26 10:55:18;;;;;;;6.93;4.43;;;16.20;99.90;;;;;;5098096;27;20496;-52
2022/10/26 10:57:50;;;;;;;9.57;4.93;;;16.20;99.90;;;;;;5122329;27;20042;-52
2022/10/26 11:00:18;;;;;;;9.43;4.63;;;16.20;99.90;;;;;;5116833;27;20065;-53
2022/10/26 11:02:50;;;;;;;12.77;5.40;;;16.20;99.90;;;;;;5122798;27;20058;-54
2022/10/26 11:05:47;;;;;;;6.32;4.57;;;16.20;99.90;;;;;;5133939;27;20476;-50
2022/10/26 11:08:29;;;;;;;10.25;5.28;;;16.20;99.90;;;;;;5131300;27;20074;-51
2022/10/26 11:11:22;;;;;;;9.32;4.53;;;16.10;99.90;;;;;;5113119;27;20885;-53
2022/10/26 11:13:56;;;;;;;6.60;4.40;;;16.10;99.90;;;;;;5097531;27;20161;-46
2022/10/26 11:16:27;;;;;;;7.18;4.43;;;16.10;99.90;;;;;;5118829;27;20400;-47
2022/10/26 11:19:26;;;;;;;11.23;4.55;;;16.20;99.90;;;;;;5139381;27;20573;-53
2022/10/26 11:21:55;;;;;;;9.38;4.15;;;16.30;99.90;;;;;;5140074;27;20169;-47
2022/10/26 11:24:58;;;;;;;8.75;4.18;;;16.40;99.90;;;;;;5135357;27;20055;-52
2022/10/26 11:27:47;;;;;;;8.07;4.22;;;16.40;99.90;;;;;;5030832;28;20041;-47
2022/10/26 11:30:19;;;;;;;11.15;4.88;;;16.50;99.90;;;;;;4990962;28;20920;-51
2022/10/26 11:32:52;;;;;;;9.85;5.20;;;16.50;99.90;;;;;;4992950;28;20054;-47
2022/10/26 11:35:17;;;;;;;;;;;16.60;99.90;;;;;;4992350;28;20614;-51
2022/10/26 11:38:05;;;;;;;8.10;4.93;;;16.60;99.90;;;;;;4993138;28;19929;-53
2022/10/26 11:40:37;;;;;;;7.60;5.13;;;16.60;99.90;;;;;;4991937;28;20639;-51
2022/10/26 11:43:32;;;;;;;9.77;5.07;;;16.60;99.90;;;;;;4993242;28;20042;-51
2022/10/26 11:46:16;;;;;;;7.55;5.75;;;16.70;99.90;;;;;;4991928;28;20045;-52
2022/10/26 11:48:57;;;;;;;11.68;6.32;;;16.70;99.90;;;;;;4976137;28;20492;-45
2022/10/26 11:51:40;;;;;;;9.85;5.38;;;16.70;99.90;;;;;;4992615;28;20135;-51
2022/10/26 11:54:13;;;;;;;8.45;5.78;;;16.80;99.90;;;;;;4992416;28;20116;-45
2022/10/26 11:56:44;;;;;;;11.25;6.68;;;16.90;99.90;;;;;;4992991;28;20058;-52
2022/10/26 11:59:26;;;;;;;10.50;6.82;;;16.90;99.90;;;;;;4992821;28;20100;-49
2022/10/26 12:02:01;;;;;;;10.03;7.57;;;16.90;99.90;;;;;;4996303;28;20526;-49
2022/10/26 12:04:31;;;;;;;10.82;6.78;;;16.90;99.90;;;;;;5060417;28;20151;-49
2022/10/26 12:07:00;;;;;;;9.20;6.88;;;16.90;99.90;;;;;;5085882;27;20140;-51
2022/10/26 12:09:30;;;;;;;10.05;6.68;;;16.90;99.90;;;;;;5129285;27;20046;-45
2022/10/26 12:12:08;;;;;;;8.95;6.75;;;16.90;99.90;;;;;;5140577;27;20062;-55
2022/10/26 12:14:39;;;;;;;10.90;6.43;;;16.90;99.90;;;;;;5126875;27;20569;-49
2022/10/26 12:17:08;;;;;;;10.57;6.43;;;16.90;99.90;;;;;;5122105;27;20091;-46
2022/10/26 12:19:54;;;;;;;10.65;6.85;;;16.90;99.90;;;;;;5121287;27;20046;-52
2022/10/26 12:22:28;;;;;;;9.38;7.15;;;17.00;99.90;;;;;;5140156;27;20417;-53
2022/10/26 12:25:19;;;;;;;14.60;7.28;;;17.00;99.90;;;;;;5139852;27;20112;-53
2022/10/26 12:27:44;;;;;;;10.20;6.95;;;17.00;99.90;;;;;;5140315;27;20038;-49
2022/10/26 12:30:21;;;;;;;9.48;7.78;;;17.00;99.90;;;;;;5139235;27;20057;-51
2022/10/26 12:32:47;;;;;;;10.70;6.57;;;17.00;99.90;;;;;;5140360;27;20428;-47
2022/10/26 12:35:31;;;;;;;13.80;8.70;;;17.10;99.90;;;;;;5121376;27;20046;-53
2022/10/26 12:37:58;;;;;;;16.85;8.27;;;17.00;99.90;;;;;;5140708;27;20389;-50
2022/10/26 12:40:31;;;;;;;9.18;7.53;;;17.00;99.90;;;;;;5140268;27;20038;-50
2022/10/26 12:43:12;;;;;;;13.07;7.93;;;17.00;99.90;;;;;;5138842;27;20958;-50
2022/10/26 12:45:38;;;;;;;12.38;7.93;;;17.10;99.90;;;;;;5130087;27;20049;-56
2022/10/26 12:48:19;;;;;;;12.75;8.43;;;17.00;99.90;;;;;;5121811;27;20082;-47
2022/10/26 12:50:45;;;;;;;12.35;7.63;;;17.00;99.90;;;;;;5118080;27;20062;-49
2022/10/26 12:53:15;;;;;;;13.80;7.28;;;17.00;99.90;;;;;;5119447;27;20059;-47
2022/10/26 12:55:58;;;;;;;16.13;7.97;;;17.10;99.90;;;;;;5124321;27;20168;-49
2022/10/26 12:58:46;;;;;;;11.80;8.40;;;17.10;99.90;;;;;;5102239;27;20039;-49
2022/10/26 13:01:33;;;;;;;13.40;9.00;;;17.20;99.90;;;;;;5119721;27;20103;-49
2022/10/26 13:04:36;;;;;;;13.80;8.27;;;17.20;99.90;;;;;;5100822;27;20031;-47